Latest Weather Observations for Samuel Hill

IDQ60801

Issued at 9:42 am EST Monday 23 April 2018 (issued every 10 minutes, with the page automatically refreshed every 10 minutes)

About weather observations | Map of weather stations | Latest weather observations for QLD | Other Formats
Station Details ID: 033308 Name: SAMUEL HILL AERO Lat: -22.74 Lon: 150.66 Height: 31.0 m
Data from the previous 72 hours. | See also: Recent months at Samuel Hill
Date/Time
EST
Temp
°C
App
Temp
°C
Dew
Point
°C
Rel
Hum
%
Delta-T
°C
Wind Press
QNH
hPa
Press
MSL
hPa
Rain since
9am
mm
Dir  Spd
km/h
Gust
km/h
Spd
kts
Gust
kts
23/09:30am 24.2 23.7 18.6 71 3.5 SSE 19 28 10 15 1016.0 1015.9 0.0
23/09:00am 22.8 22.8 18.1 75 2.9 SSE 15 22 8 12 1016.2 1016.1 1.8
23/08:30am 22.0 23.3 18.4 80 2.3 S 9 17 5 9 1016.2 1016.1 1.8
23/08:00am 21.2 22.5 18.4 84 1.7 S 9 13 5 7 1016.0 1015.9 1.8
23/07:30am 20.8 21.9 18.0 84 1.7 S 9 11 5 6 1015.6 1015.5 1.8
23/07:00am 20.1 21.1 17.7 86 1.5 S 9 13 5 7 1015.3 1015.2 1.8
23/06:30am 19.8 20.8 17.8 88 1.2 S 9 13 5 7 1015.1 1015.0 1.8
23/06:00am 19.6 20.6 17.7 89 1.2 SSW 9 13 5 7 1014.7 1014.6 1.8
23/05:30am 19.4 20.8 17.7 90 1.0 S 7 11 4 6 1014.5 1014.3 1.8
23/05:00am 19.7 21.3 17.8 89 1.2 S 6 7 3 4 1014.3 1014.1 1.8
23/04:30am 19.8 21.3 18.1 90 1.1 SSW 7 9 4 5 1014.2 1014.0 1.8
23/04:00am 19.7 21.1 17.8 89 1.2 S 7 9 4 5 1014.1 1013.9 1.8
23/03:30am 19.7 21.1 17.8 89 1.2 S 7 9 4 5 1014.2 1014.0 1.8
23/03:00am 19.9 21.0 18.0 89 1.2 S 9 11 5 6 1014.2 1014.0 1.8
23/02:30am 20.0 21.7 18.5 91 0.9 S 7 9 4 5 1014.3 1014.1 1.8
23/02:00am 19.8 21.7 19.0 95 0.5 S 7 9 4 5 1014.6 1014.4 1.8
23/01:30am 19.0 20.4 17.7 92 0.8 SW 7 9 4 5 1014.8 1014.7 1.8
23/01:00am 19.4 20.8 17.9 91 0.9 SSW 7 9 4 5 1015.0 1014.9 1.8
23/12:30am 19.8 21.2 17.9 89 1.2 SSW 7 11 4 6 1015.2 1015.1 1.8
23/12:00am 20.2 21.8 18.3 89 1.2 SSE 7 9 4 5 1015.4 1015.3 1.8
 
Date/Time
EST
Temp
°C
App
Temp
°C
Dew
Point
°C
Rel
Hum
%
Delta-T
°C
Wind Press
QNH
hPa
Press
MSL
hPa
Rain since
9am
mm
Dir  Spd
km/h
Gust
km/h
Spd
kts
Gust
kts
22/11:30pm 20.1 21.9 18.2 89 1.2 SSE 6 6 3 3 1015.5 1015.4 1.8
22/11:00pm 20.4 21.6 18.3 88 1.3 S 9 11 5 6 1015.6 1015.5 1.8
22/10:30pm 20.5 22.1 19.2 92 0.8 S 9 13 5 7 1015.7 1015.6 1.8
22/10:00pm 19.1 20.7 17.8 92 0.8 SE 6 7 3 4 1016.0 1015.9 1.8
22/09:30pm 19.5 21.1 18.2 92 0.8 S 7 9 4 5 1016.1 1016.0 1.8
22/09:00pm 19.8 21.0 18.3 91 0.9 SSE 9 9 5 5 1015.9 1015.8 1.8
22/08:30pm 20.0 21.7 18.5 91 0.9 SSE 7 9 4 5 1015.9 1015.8 1.8
22/08:00pm 20.1 21.8 18.4 90 1.1 SSE 7 9 4 5 1015.5 1015.4 1.8
22/07:30pm 20.2 21.9 18.5 90 1.1 SSE 7 9 4 5 1015.3 1015.2 1.8
22/07:00pm 20.8 22.2 18.7 88 1.3 SSE 9 9 5 5 1015.2 1015.1 1.8
22/06:30pm 21.0 22.8 18.8 87 1.4 SE 7 9 4 5 1015.0 1014.9 1.8
22/06:00pm 21.9 23.7 18.7 82 2.0 ESE 7 9 4 5 1014.9 1014.8 1.8
22/05:30pm 23.0 24.3 18.5 76 2.8 ESE 9 13 5 7 1014.6 1014.4 1.8
22/05:00pm 24.0 24.5 18.4 71 3.5 ESE 13 20 7 11 1014.5 1014.3 1.8
22/04:30pm 24.4 24.6 18.6 70 3.7 SE 15 20 8 11 1014.1 1013.9 1.8
22/04:00pm 24.8 24.5 18.3 67 4.1 SE 17 24 9 13 1013.9 1013.7 1.8
22/03:30pm 25.1 25.0 17.8 64 4.6 SE 15 22 8 12 1013.7 1013.5 1.8
22/03:00pm 24.9 24.9 18.1 66 4.3 ESE 15 22 8 12 1013.9 1013.7 1.8
22/02:30pm 25.5 25.5 18.9 67 4.2 SSE 17 28 9 15 1013.9 1013.7 1.8
22/02:00pm 25.5 26.2 19.6 70 3.8 SE 15 24 8 13 1014.1 1013.9 1.8
22/01:30pm 25.3 25.2 18.7 67 4.2 ESE 17 24 9 13 1014.2 1014.0 1.8
22/01:00pm 25.0 24.6 18.9 69 3.9 SE 19 26 10 14 1014.6 1014.4 1.8
22/12:30pm 24.8 24.8 19.0 70 3.7 SE 17 26 9 14 1014.8 1014.7 1.6
22/12:00pm 25.1 24.6 19.2 70 3.8 SSE 20 33 11 18 1015.3 1015.2 1.6
22/11:30am 23.8 23.8 19.7 78 2.6 SE 19 28 10 15 1015.9 1015.8 1.6
22/11:00am 22.8 23.3 20.0 84 1.8 SSE 17 28 9 15 1016.3 1016.2 1.6
22/10:30am 23.4 25.2 21.1 87 1.5 SSE 13 22 7 12 1016.5 1016.4 1.6
22/10:24am 23.1 25.4 22.1 94 0.7 SSE 13 20 7 11 1016.6 1016.5 1.6
22/10:04am 21.5 21.8 19.6 89 1.2 SE 17 28 9 15 1016.7 1016.6 1.0
22/10:00am 22.3 23.3 20.2 88 1.4 SE 15 22 8 12 1016.7 1016.6 0.0
22/09:30am 21.6 23.3 20.2 92 0.9 S 11 19 6 10 1016.7 1016.6 0.0
22/09:12am 21.7 24.1 20.9 95 0.5 SSE 9 15 5 8 1016.7 1016.6 0.0
22/09:11am 21.5 23.8 20.7 95 0.5 SSE 9 13 5 7 1016.7 1016.6 0.0
22/09:00am 21.0 23.1 20.2 95 0.5 SE 9 17 5 9 1016.7 1016.6 10.4
22/08:51am 20.6 22.0 19.6 94 0.6 SE 11 17 6 9 1016.6 1016.5 9.6
22/08:40am 20.8 22.7 19.8 94 0.6 SE 9 13 5 7 1016.5 1016.4 9.0
22/08:39am 20.9 23.2 19.9 94 0.6 SE 7 13 4 7 1016.5 1016.4 9.0
22/08:30am 20.7 22.6 19.7 94 0.6 SSE 9 13 5 7 1016.6 1016.5 9.0
22/08:25am 20.6 22.4 19.6 94 0.6 SSE 9 13 5 7 1016.6 1016.5 8.6
22/08:21am 20.6 22.3 19.4 93 0.8 SSE 9 13 5 7 1016.5 1016.4 8.4
22/08:13am 20.6 22.4 19.6 94 0.6 SSE 9 17 5 9 1016.5 1016.4 7.8
22/08:00am 20.7 22.9 19.5 93 0.8 SSE 7 11 4 6 1016.4 1016.3 7.2
22/07:30am 20.2 21.8 19.2 94 0.6 S 9 15 5 8 1016.0 1015.9 7.0
22/07:00am 20.3 22.5 19.5 95 0.5 SSW 7 11 4 6 1015.7 1015.6 7.0
22/06:48am 20.4 22.2 19.6 95 0.5 S 9 13 5 7 1015.5 1015.4 7.0
22/06:30am 20.2 20.9 19.7 97 0.3 SE 15 20 8 11 1015.4 1015.3 6.6
22/06:25am 20.0 21.3 19.3 96 0.4 SSE 11 19 6 10 1015.4 1015.3 5.2
22/06:23am 20.1 21.4 19.4 96 0.4 SSE 11 17 6 9 1015.4 1015.3 3.8
22/06:00am 20.1 22.2 19.3 95 0.5 SSE 7 11 4 6 1015.1 1015.0 3.0
22/05:48am 20.2 21.9 19.4 95 0.5 S 9 13 5 7 1015.0 1014.9 3.0
22/05:30am 20.1 22.2 19.3 95 0.5 SE 7 11 4 6 1014.8 1014.7 2.8
22/05:01am 20.3 21.7 19.5 95 0.5 S 11 43 6 23 1014.8 1014.7 2.8
22/05:00am 20.3 21.7 19.5 95 0.5 S 11 43 6 23 1014.8 1014.7 2.8
22/04:38am 20.4 22.6 19.7 96 0.4 SSE 7 11 4 6 1014.7 1014.6 2.8
22/04:33am 20.3 22.7 19.6 96 0.4 SSE 6 9 3 5 1014.7 1014.6 2.8
22/04:30am 20.2 22.5 19.5 96 0.4 SSE 6 11 3 6 1014.6 1014.4 2.8
22/04:20am 20.1 22.2 19.4 96 0.4 S 7 9 4 5 1014.6 1014.4 2.6
22/04:00am 20.1 21.8 19.3 95 0.5 S 9 13 5 7 1014.4 1014.2 1.6
22/03:30am 20.3 22.1 19.6 96 0.4 SSE 9 13 5 7 1014.4 1014.2 1.6
22/03:00am 20.0 22.0 19.2 95 0.5 SSE 7 11 4 6 1014.5 1014.3 1.6
22/02:30am 20.3 22.1 19.5 95 0.5 SSE 9 15 5 8 1014.7 1014.6 1.6
22/02:00am 20.2 21.7 19.0 93 0.8 SSE 9 13 5 7 1014.9 1014.8 1.6
22/01:30am 20.1 22.1 18.8 92 0.8 S 6 9 3 5 1015.1 1015.0 1.6
22/01:00am 20.1 22.2 18.9 93 0.8 S 6 7 3 4 1015.2 1015.1 1.6
22/12:30am 20.5 23.8 19.2 92 0.8 CALM 0 0 0 0 1015.4 1015.3 1.6
22/12:00am 20.8 23.0 19.5 92 0.8 SE 7 11 4 6 1015.7 1015.6 1.4
 
Date/Time
EST
Temp
°C
App
Temp
°C
Dew
Point
°C
Rel
Hum
%
Delta-T
°C
Wind Press
QNH
hPa
Press
MSL
hPa
Rain since
9am
mm
Dir  Spd
km/h
Gust
km/h
Spd
kts
Gust
kts
21/11:30pm 20.7 21.9 19.0 90 1.1 SE 11 19 6 10 1016.0 1015.9 1.4
21/11:00pm 21.0 22.8 18.4 85 1.6 SSE 6 7 3 4 1015.9 1015.8 0.4
21/10:30pm 21.6 22.6 18.6 83 1.9 SE 11 19 6 10 1016.0 1015.9 0.4
21/10:00pm 21.8 22.8 19.5 87 1.5 ESE 13 19 7 10 1016.1 1016.0 0.4
21/09:58pm 21.9 22.5 19.5 86 1.5 ESE 15 24 8 13 1016.1 1016.0 0.4
21/09:38pm 21.0 22.9 18.9 88 1.3 SSE 7 11 4 6 1016.1 1016.0 0.4
21/09:30pm 21.1 22.6 19.0 88 1.3 SSE 9 11 5 6 1016.1 1016.0 0.4
21/09:00pm 21.0 22.9 18.9 88 1.3 SSE 7 9 4 5 1016.1 1016.0 0.4
21/08:30pm 20.9 22.4 19.0 89 1.2 SSE 9 11 5 6 1015.9 1015.8 0.4
21/08:00pm 20.9 22.4 19.0 89 1.2 SSE 9 11 5 6 1015.9 1015.8 0.4
21/07:30pm 21.2 23.3 19.3 89 1.2 S 7 9 4 5 1015.7 1015.6 0.4
21/07:00pm 21.4 23.5 19.3 88 1.3 SE 7 9 4 5 1015.2 1015.1 0.4
21/06:30pm 21.8 23.5 19.4 86 1.5 SSE 9 11 5 6 1014.8 1014.7 0.4
21/06:00pm 22.4 24.7 19.4 83 1.9 ESE 6 7 3 4 1014.4 1014.2 0.4
21/05:30pm 23.2 25.3 19.4 79 2.4 ESE 7 11 4 6 1014.1 1013.9 0.4
21/05:00pm 24.1 25.7 19.2 74 3.1 ESE 9 13 5 7 1014.0 1013.8 0.4
21/04:30pm 24.2 25.8 19.1 73 3.3 ESE 9 15 5 8 1013.9 1013.7 0.4
21/04:00pm 24.4 25.6 18.3 69 3.8 ESE 9 13 5 7 1013.7 1013.5 0.4
21/03:30pm 25.6 25.4 18.5 65 4.5 ESE 17 24 9 13 1013.7 1013.5 0.4
21/03:00pm 26.5 26.8 17.8 58 5.5 ESE 13 20 7 11 1013.6 1013.4 0.4
21/02:30pm 26.9 26.9 19.0 62 5.1 ESE 17 26 9 14 1013.7 1013.5 0.4
21/02:00pm 25.7 26.1 18.9 66 4.3 ESE 15 22 8 12 1013.9 1013.7 0.4
21/01:30pm 26.4 26.5 18.3 61 5.1 ESE 15 24 8 13 1013.9 1013.7 0.4
21/01:00pm 26.3 27.0 19.7 67 4.3 ESE 15 20 8 11 1014.2 1014.0 0.4
21/12:30pm 25.9 27.1 20.7 73 3.4 SE 15 22 8 12 1014.8 1014.7 0.4
21/12:00pm 26.9 27.7 20.7 69 4.1 ESE 17 26 9 14 1015.1 1015.0 0.4
21/11:30am 26.4 26.7 18.8 63 4.9 ESE 15 24 8 13 1015.6 1015.5 0.4
21/11:00am 26.5 26.7 19.4 65 4.6 SE 17 28 9 15 1016.0 1015.9 0.2
21/10:30am 26.0 26.0 18.9 65 4.5 SE 17 24 9 13 1016.3 1016.2 0.2
21/10:00am 26.0 26.9 20.1 70 3.8 SE 15 20 8 11 1016.4 1016.3 0.2
21/09:30am 24.9 26.7 21.2 80 2.4 SE 13 24 7 13 1016.4 1016.3 0.2
21/09:00am 23.5 26.8 21.8 90 1.1 ESE 7 13 4 7 1016.6 1016.5 2.6
21/08:30am 22.1 24.8 20.7 92 0.9 SSE 7 11 4 6 1016.6 1016.5 2.6
21/08:00am 21.6 24.1 20.2 92 0.9 SSE 7 11 4 6 1016.2 1016.1 2.6
21/07:30am 20.4 22.8 19.7 96 0.4 SW 6 7 3 4 1016.0 1015.9 2.6
21/07:00am 18.9 22.0 18.6 98 0.2 CALM 0 0 0 0 1015.7 1015.6 2.6
21/06:30am 18.5 21.4 18.2 98 0.2 CALM 0 0 0 0 1015.4 1015.3 2.6
21/06:00am 18.2 20.9 17.7 97 0.3 CALM 0 6 0 3 1015.1 1015.0 2.6
21/05:30am 18.6 21.5 18.3 98 0.2 CALM 0 6 0 3 1014.9 1014.8 2.6
21/05:00am 17.9 20.4 17.3 96 0.4 CALM 0 0 0 0 1014.7 1014.6 2.6
21/04:30am 17.6 19.9 16.8 95 0.5 CALM 0 0 0 0 1014.7 1014.6 2.6
21/04:00am 17.9 20.3 17.1 95 0.5 CALM 0 0 0 0 1014.6 1014.4 2.6
21/03:30am 17.8 20.2 17.0 95 0.5 CALM 0 0 0 0 1014.7 1014.6 2.6
21/03:00am 17.8 20.2 17.0 95 0.5 CALM 0 0 0 0 1014.7 1014.6 2.6
21/02:30am 18.0 20.5 17.2 95 0.5 CALM 0 0 0 0 1014.8 1014.7 2.6
21/02:00am 18.2 20.8 17.4 95 0.5 CALM 0 0 0 0 1015.0 1014.9 2.6
21/01:30am 18.2 20.7 17.2 94 0.6 CALM 0 0 0 0 1015.2 1015.1 2.6
21/01:00am 18.7 21.4 17.7 94 0.6 CALM 0 0 0 0 1015.6 1015.5 2.6
21/12:30am 18.5 20.7 17.5 94 0.6 SSE 2 6 1 3 1015.8 1015.7 2.6
21/12:00am 18.8 21.4 17.6 93 0.7 CALM 0 0 0 0 1016.1 1016.0 2.6
 
Date/Time
EST
Temp
°C
App
Temp
°C
Dew
Point
°C
Rel
Hum
%
Delta-T
°C
Wind Press
QNH
hPa
Press
MSL
hPa
Rain since
9am
mm
Dir  Spd
km/h
Gust
km/h
Spd
kts
Gust
kts
20/11:30pm 19.3 22.2 18.3 94 0.6 CALM 0 0 0 0 1016.1 1016.0 2.6
20/11:00pm 19.2 22.0 18.0 93 0.7 CALM 0 0 0 0 1016.2 1016.1 2.6
20/10:30pm 19.8 22.8 18.5 92 0.8 CALM 0 0 0 0 1016.4 1016.3 2.6
20/10:00pm 20.2 22.6 18.9 92 0.8 SSE 4 7 2 4 1016.4 1016.3 2.6
20/09:30pm 20.6 22.7 19.4 93 0.8 SSE 7 9 4 5 1016.3 1016.2 2.6
20/09:00pm 20.4 23.6 18.9 91 0.9 CALM 0 0 0 0 1016.2 1016.1 2.6
20/08:30pm 20.5 23.8 19.0 91 0.9 CALM 0 0 0 0 1016.3 1016.2 2.6
20/08:00pm 21.1 24.5 19.4 90 1.1 CALM 0 6 0 3 1016.1 1016.0 2.6
20/07:30pm 21.7 24.1 19.6 88 1.3 SE 6 9 3 5 1015.8 1015.7 2.6
20/07:00pm 22.2 24.2 19.9 87 1.5 SSE 9 11 5 6 1015.4 1015.3 2.6
20/06:30pm 22.4 24.3 19.8 85 1.7 SE 9 11 5 6 1015.1 1015.0 2.6
20/06:00pm 23.1 25.4 19.5 80 2.3 SE 6 7 3 4 1014.9 1014.8 2.6
20/05:30pm 23.9 25.6 19.4 76 2.9 ESE 9 13 5 7 1014.5 1014.3 2.6
20/05:00pm 25.1 26.3 19.0 69 3.9 E 11 17 6 9 1014.1 1013.9 2.6
20/04:30pm 25.6 27.0 19.5 69 3.9 E 11 19 6 10 1013.8 1013.6 2.6
20/04:00pm 26.0 26.5 19.2 66 4.4 ESE 15 22 8 12 1013.6 1013.4 2.6
20/03:30pm 26.3 26.4 19.2 65 4.6 SE 17 26 9 14 1013.7 1013.5 2.6
20/03:00pm 26.7 26.9 20.1 67 4.3 ESE 19 28 10 15 1013.9 1013.7 2.6
20/02:30pm 26.8 27.5 19.7 65 4.6 ESE 15 24 8 13 1013.9 1013.7 2.6
20/02:00pm 27.3 27.4 19.9 64 4.8 ESE 19 28 10 15 1014.1 1013.9 2.6
20/01:30pm 26.6 26.2 19.0 63 4.9 ESE 19 26 10 14 1014.4 1014.2 2.6
20/01:00pm 26.0 25.6 19.4 67 4.3 ESE 20 28 11 15 1014.8 1014.7 2.6
20/12:30pm 25.9 26.1 20.5 72 3.5 ESE 20 32 11 17 1015.2 1015.1 2.6
20/12:00pm 26.6 27.0 20.7 70 3.9 ESE 19 28 10 15 1015.7 1015.6 2.6
20/11:30am 26.0 26.9 20.1 70 3.8 SE 15 24 8 13 1016.4 1016.3 2.6
20/11:00am 25.1 27.4 21.4 80 2.4 SE 11 19 6 10 1016.9 1016.8 2.6
20/10:42am 23.2 25.8 20.5 85 1.8 ENE 7 13 4 7 1017.2 1017.1 2.6
20/10:30am 22.8 24.6 20.3 86 1.6 E 11 17 6 9 1017.4 1017.3 2.6
20/10:28am 22.7 24.4 20.2 86 1.6 E 11 17 6 9 1017.4 1017.3 2.6
20/10:11am 22.8 23.7 20.1 85 1.7 SE 15 22 8 12 1017.6 1017.5 2.6
20/10:00am 23.8 25.7 21.3 86 1.6 SSE 13 24 7 13 1017.5 1017.4 2.6
20/09:52am 23.8 24.5 20.5 82 2.1 SSE 17 28 9 15 1017.5 1017.4 2.0

Other Formats:

Comma delimited format used in spreadsheet applications
http://www.bom.gov.au/fwo/IDQ60801/IDQ60801.94370.axf

JavaScript Object Notation format (JSON) in row-major order
http://www.bom.gov.au/fwo/IDQ60801/IDQ60801.94370.json